COMO2: Grand River, Commerce, OK

                                SHEF ID:       COMO2     Neosho River nr Commerce, OK
STATION TYPE:
Regulating: Stage = 15.00, Flow = 21598

PRECIP STAGE STAGE(2) RIV-FLOW BAT-LOAD
in ft ft cfs volt
Ccp-Rev Ccp-Rev Ccp-Rev Ccp-Rev Ccp-Rev
(America/Chicago)
05/01 00:00 0.00 4.75 ---- 4161 12.37
05/01 01:00 0.00 4.74 ---- 4137 12.34
05/01 02:00 0.00 4.73 ---- 4112 12.32
05/01 03:00 0.00 4.73 ---- 4112 12.30
05/01 04:00 0.00 4.73 ---- 4112 12.27
05/01 05:00 0.00 4.73 ---- 4112 12.25
05/01 06:00 0.00 4.75 ---- 4161 12.25
05/01 07:00 0.00 4.77 ---- 4211 12.23
05/01 08:00 0.00 4.80 ---- 4285 12.54
05/01 09:00 0.00 4.84 ---- 4384 13.21
05/01 10:00 0.00 4.89 ---- 4507 13.23
05/01 11:00 0.00 4.95 ---- 4655 13.22
05/01 12:00 0.00 5.02 ---- 4810 12.99
05/01 13:00 0.00 5.11 ---- 4953 12.93
05/01 14:00 0.00 5.20 ---- 5097 12.86
05/01 15:00 0.00 5.30 ---- 5256 12.87
05/01 16:00 0.00 5.41 ---- 5431 12.76
05/01 17:00 0.00 5.53 ---- 5622 12.63
05/01 18:00 0.00 5.65 ---- 5813 12.65
05/01 19:00 0.00 5.77 ---- 6005 12.61
05/01 20:00 0.00 5.89 ---- 6196 12.55
05/01 21:00 0.00 6.01 ---- 6387 12.43
05/01 22:00 0.00 6.13 ---- 6578 12.40
05/01 23:00 0.00 6.23 ---- 6737 12.37
Data processed at Sat 02May2026 04:36 GMT

NOTICE: If you are parsing this page

Please convert to using our Data API. Starting early 2026 we will be migrating to: https://water.usace.army.mil with modern pages rendered in JavaScript. When this migration completes you will no longer be able to scrape this page! CWMSDataAPI (CDA)

Timeseries IDs (TSIDs)

TSIDs used from left to right in the data table
COMM.Precip-Inc.Total.1Hour.1Hour.Ccp-Rev
COMM.Stage.Inst.1Hour.0.Ccp-Rev
COMM.Stage-Alt.Inst.1Hour.0.Ccp-Rev
COMM.Flow.Inst.1Hour.0.Ccp-Rev
COMM.Volt-Battery Load.Inst.1Hour.0.Ccp-Rev

                            

All information presented herein is the property of the government of the United States of America and may be revised or deleted at any time without prior notice. Dissemination of this information without the expressed written consent of the Public Affairs Office, Tulsa District U.S. Army Corps of Engineers is strictly prohibited. These data are gathered electronically and, as presented, have NOT undergone any form of quality control. These data are NOT guaranteed to be valid or correct.